sensor_id;sensor_type;location;lat;lon;timestamp;temperature;humidity
77613;DHT22;66777;52.282;5.960;2023-02-24T00:01:38;0.80;89.70
77613;DHT22;66777;52.282;5.960;2023-02-24T00:04:09;0.80;89.40
77613;DHT22;66777;52.282;5.960;2023-02-24T00:06:40;0.80;89.30
77613;DHT22;66777;52.282;5.960;2023-02-24T00:11:43;0.60;89.30
77613;DHT22;66777;52.282;5.960;2023-02-24T00:14:12;0.60;89.30
77613;DHT22;66777;52.282;5.960;2023-02-24T00:16:42;0.60;89.30
77613;DHT22;66777;52.282;5.960;2023-02-24T00:19:12;0.50;89.50
77613;DHT22;66777;52.282;5.960;2023-02-24T00:21:39;0.60;89.60
77613;DHT22;66777;52.282;5.960;2023-02-24T00:24:06;0.60;89.50
77613;DHT22;66777;52.282;5.960;2023-02-24T00:26:32;0.60;89.40
77613;DHT22;66777;52.282;5.960;2023-02-24T00:28:59;0.50;89.30
77613;DHT22;66777;52.282;5.960;2023-02-24T00:31:28;0.50;89.40
77613;DHT22;66777;52.282;5.960;2023-02-24T00:33:58;0.50;89.20
77613;DHT22;66777;52.282;5.960;2023-02-24T00:36:26;0.50;89.20
77613;DHT22;66777;52.282;5.960;2023-02-24T00:38:58;0.40;89.30
77613;DHT22;66777;52.282;5.960;2023-02-24T00:41:30;0.40;89.40
77613;DHT22;66777;52.282;5.960;2023-02-24T00:43:58;0.30;89.50
77613;DHT22;66777;52.282;5.960;2023-02-24T00:46:42;0.30;89.50
77613;DHT22;66777;52.282;5.960;2023-02-24T00:49:18;0.40;89.50
77613;DHT22;66777;52.282;5.960;2023-02-24T00:51:46;0.40;89.50
77613;DHT22;66777;52.282;5.960;2023-02-24T00:54:14;0.40;89.60
77613;DHT22;66777;52.282;5.960;2023-02-24T00:56:43;0.30;89.70
77613;DHT22;66777;52.282;5.960;2023-02-24T00:59:10;0.30;89.70
77613;DHT22;66777;52.282;5.960;2023-02-24T01:01:36;0.30;89.70
77613;DHT22;66777;52.282;5.960;2023-02-24T01:04:04;0.30;89.90
77613;DHT22;66777;52.282;5.960;2023-02-24T01:06:31;0.30;90.00
77613;DHT22;66777;52.282;5.960;2023-02-24T01:08:58;0.30;90.00
77613;DHT22;66777;52.282;5.960;2023-02-24T01:11:27;0.40;90.20
77613;DHT22;66777;52.282;5.960;2023-02-24T01:14:18;0.50;90.20
77613;DHT22;66777;52.282;5.960;2023-02-24T01:16:44;0.60;90.30
77613;DHT22;66777;52.282;5.960;2023-02-24T01:19:24;0.60;90.10
77613;DHT22;66777;52.282;5.960;2023-02-24T01:21:54;0.70;90.10
77613;DHT22;66777;52.282;5.960;2023-02-24T01:24:21;0.60;90.00
77613;DHT22;66777;52.282;5.960;2023-02-24T01:26:48;0.60;89.70
77613;DHT22;66777;52.282;5.960;2023-02-24T01:29:15;0.50;89.50
77613;DHT22;66777;52.282;5.960;2023-02-24T01:31:40;0.40;89.30
77613;DHT22;66777;52.282;5.960;2023-02-24T01:34:09;0.30;89.20
77613;DHT22;66777;52.282;5.960;2023-02-24T01:36:36;0.30;89.30
77613;DHT22;66777;52.282;5.960;2023-02-24T01:39:03;0.20;89.30
77613;DHT22;66777;52.282;5.960;2023-02-24T01:41:31;0.20;89.40
77613;DHT22;66777;52.282;5.960;2023-02-24T01:44:05;0.10;89.40
77613;DHT22;66777;52.282;5.960;2023-02-24T01:46:41;0.10;89.50
77613;DHT22;66777;52.282;5.960;2023-02-24T01:52:04;0.30;89.70
77613;DHT22;66777;52.282;5.960;2023-02-24T01:54:37;0.40;89.70
77613;DHT22;66777;52.282;5.960;2023-02-24T01:57:12;0.40;89.70
77613;DHT22;66777;52.282;5.960;2023-02-24T01:59:45;0.40;89.60
77613;DHT22;66777;52.282;5.960;2023-02-24T02:02:13;0.40;89.50
77613;DHT22;66777;52.282;5.960;2023-02-24T02:07:12;0.40;89.50
77613;DHT22;66777;52.282;5.960;2023-02-24T02:09:39;0.50;89.70
77613;DHT22;66777;52.282;5.960;2023-02-24T02:12:09;0.60;89.70
77613;DHT22;66777;52.282;5.960;2023-02-24T02:14:38;0.60;89.70
77613;DHT22;66777;52.282;5.960;2023-02-24T02:17:45;0.60;89.80
77613;DHT22;66777;52.282;5.960;2023-02-24T02:20:39;0.70;89.70
77613;DHT22;66777;52.282;5.960;2023-02-24T02:26:22;0.90;89.40
77613;DHT22;66777;52.282;5.960;2023-02-24T02:29:11;1.00;89.10
77613;DHT22;66777;52.282;5.960;2023-02-24T02:34:48;0.80;88.70
77613;DHT22;66777;52.282;5.960;2023-02-24T02:42:58;0.80;89.00
77613;DHT22;66777;52.282;5.960;2023-02-24T02:45:45;0.80;89.10
77613;DHT22;66777;52.282;5.960;2023-02-24T02:48:54;0.80;88.90
77613;DHT22;66777;52.282;5.960;2023-02-24T02:51:31;0.80;88.60
77613;DHT22;66777;52.282;5.960;2023-02-24T02:53:59;0.80;88.60
77613;DHT22;66777;52.282;5.960;2023-02-24T02:57:01;0.70;88.40
77613;DHT22;66777;52.282;5.960;2023-02-24T02:59:31;0.60;88.30
77613;DHT22;66777;52.282;5.960;2023-02-24T03:02:00;0.60;88.30
77613;DHT22;66777;52.282;5.960;2023-02-24T03:04:44;0.60;88.40
77613;DHT22;66777;52.282;5.960;2023-02-24T03:07:13;0.60;88.40
77613;DHT22;66777;52.282;5.960;2023-02-24T03:09:43;0.70;88.60
77613;DHT22;66777;52.282;5.960;2023-02-24T03:12:13;0.70;88.80
77613;DHT22;66777;52.282;5.960;2023-02-24T03:14:45;0.70;88.60
77613;DHT22;66777;52.282;5.960;2023-02-24T03:17:23;0.80;88.70
77613;DHT22;66777;52.282;5.960;2023-02-24T03:19:52;0.80;88.60
77613;DHT22;66777;52.282;5.960;2023-02-24T03:22:36;0.90;88.70
77613;DHT22;66777;52.282;5.960;2023-02-24T03:25:05;1.00;88.40
77613;DHT22;66777;52.282;5.960;2023-02-24T03:27:40;1.00;88.30
77613;DHT22;66777;52.282;5.960;2023-02-24T03:30:24;1.00;87.80
77613;DHT22;66777;52.282;5.960;2023-02-24T03:32:55;1.10;88.00
77613;DHT22;66777;52.282;5.960;2023-02-24T03:35:28;1.10;88.00
77613;DHT22;66777;52.282;5.960;2023-02-24T03:37:57;1.20;87.90
77613;DHT22;66777;52.282;5.960;2023-02-24T03:40:24;1.20;87.70
77613;DHT22;66777;52.282;5.960;2023-02-24T03:43:10;1.20;87.70
77613;DHT22;66777;52.282;5.960;2023-02-24T03:45:41;1.20;87.30
77613;DHT22;66777;52.282;5.960;2023-02-24T03:48:08;1.20;86.90
77613;DHT22;66777;52.282;5.960;2023-02-24T03:50:36;1.30;87.70
77613;DHT22;66777;52.282;5.960;2023-02-24T04:01:41;1.40;87.30
77613;DHT22;66777;52.282;5.960;2023-02-24T04:04:17;1.40;87.30
77613;DHT22;66777;52.282;5.960;2023-02-24T04:15:24;1.60;86.60
77613;DHT22;66777;52.282;5.960;2023-02-24T04:17:57;1.60;86.40
77613;DHT22;66777;52.282;5.960;2023-02-24T04:20:26;1.60;86.60
77613;DHT22;66777;52.282;5.960;2023-02-24T04:23:07;1.70;86.20
77613;DHT22;66777;52.282;5.960;2023-02-24T04:25:34;1.70;86.20
77613;DHT22;66777;52.282;5.960;2023-02-24T04:28:01;1.60;86.40
77613;DHT22;66777;52.282;5.960;2023-02-24T04:30:37;1.60;86.50
77613;DHT22;66777;52.282;5.960;2023-02-24T04:33:03;1.60;85.20
77613;DHT22;66777;52.282;5.960;2023-02-24T04:35:29;1.60;85.10
77613;DHT22;66777;52.282;5.960;2023-02-24T04:37:55;1.60;86.00
77613;DHT22;66777;52.282;5.960;2023-02-24T04:40:21;1.60;85.80
77613;DHT22;66777;52.282;5.960;2023-02-24T04:42:49;1.60;85.40
77613;DHT22;66777;52.282;5.960;2023-02-24T04:45:23;1.70;85.30
77613;DHT22;66777;52.282;5.960;2023-02-24T04:47:50;1.70;84.70
77613;DHT22;66777;52.282;5.960;2023-02-24T04:50:26;1.70;85.10
77613;DHT22;66777;52.282;5.960;2023-02-24T04:53:00;1.80;84.80
77613;DHT22;66777;52.282;5.960;2023-02-24T04:55:28;1.80;84.90
77613;DHT22;66777;52.282;5.960;2023-02-24T04:58:00;1.80;84.30
77613;DHT22;66777;52.282;5.960;2023-02-24T05:00:28;1.80;84.00
77613;DHT22;66777;52.282;5.960;2023-02-24T05:03:02;1.90;84.30
77613;DHT22;66777;52.282;5.960;2023-02-24T05:05:28;1.90;84.60
77613;DHT22;66777;52.282;5.960;2023-02-24T05:07:56;1.90;83.30
77613;DHT22;66777;52.282;5.960;2023-02-24T05:10:28;2.00;83.50
77613;DHT22;66777;52.282;5.960;2023-02-24T05:12:54;2.00;84.00
77613;DHT22;66777;52.282;5.960;2023-02-24T05:15:23;2.00;84.30
77613;DHT22;66777;52.282;5.960;2023-02-24T05:18:00;2.00;83.30
77613;DHT22;66777;52.282;5.960;2023-02-24T05:20:34;2.00;83.70
77613;DHT22;66777;52.282;5.960;2023-02-24T05:23:29;2.00;83.50
77613;DHT22;66777;52.282;5.960;2023-02-24T05:26:00;2.00;83.40
77613;DHT22;66777;52.282;5.960;2023-02-24T05:28:26;2.10;83.40
77613;DHT22;66777;52.282;5.960;2023-02-24T05:31:12;2.10;84.00
77613;DHT22;66777;52.282;5.960;2023-02-24T05:33:41;2.10;83.50
77613;DHT22;66777;52.282;5.960;2023-02-24T05:36:09;2.10;83.40
77613;DHT22;66777;52.282;5.960;2023-02-24T05:38:37;2.10;82.90
77613;DHT22;66777;52.282;5.960;2023-02-24T05:41:08;2.10;83.80
77613;DHT22;66777;52.282;5.960;2023-02-24T05:43:39;2.20;82.80
77613;DHT22;66777;52.282;5.960;2023-02-24T05:46:06;2.10;82.90
77613;DHT22;66777;52.282;5.960;2023-02-24T05:48:33;2.20;82.80
77613;DHT22;66777;52.282;5.960;2023-02-24T05:51:04;2.20;82.40
77613;DHT22;66777;52.282;5.960;2023-02-24T05:53:32;2.20;82.70
77613;DHT22;66777;52.282;5.960;2023-02-24T05:56:02;2.20;82.20
77613;DHT22;66777;52.282;5.960;2023-02-24T05:58:30;2.20;81.40
77613;DHT22;66777;52.282;5.960;2023-02-24T06:00:57;2.20;82.30
77613;DHT22;66777;52.282;5.960;2023-02-24T06:03:31;2.30;82.50
77613;DHT22;66777;52.282;5.960;2023-02-24T06:06:01;2.30;82.50
77613;DHT22;66777;52.282;5.960;2023-02-24T06:08:33;2.30;82.20
77613;DHT22;66777;52.282;5.960;2023-02-24T06:11:08;2.40;81.80
77613;DHT22;66777;52.282;5.960;2023-02-24T06:13:38;2.40;81.30
77613;DHT22;66777;52.282;5.960;2023-02-24T06:16:07;2.50;81.40
77613;DHT22;66777;52.282;5.960;2023-02-24T06:18:37;2.50;81.60
77613;DHT22;66777;52.282;5.960;2023-02-24T06:21:03;2.50;80.40
77613;DHT22;66777;52.282;5.960;2023-02-24T06:23:29;2.60;81.00
77613;DHT22;66777;52.282;5.960;2023-02-24T06:25:55;2.60;81.00
77613;DHT22;66777;52.282;5.960;2023-02-24T06:28:25;2.70;80.50
77613;DHT22;66777;52.282;5.960;2023-02-24T06:30:51;2.70;80.30
77613;DHT22;66777;52.282;5.960;2023-02-24T06:33:17;2.80;80.00
77613;DHT22;66777;52.282;5.960;2023-02-24T06:35:43;2.80;79.30
77613;DHT22;66777;52.282;5.960;2023-02-24T06:38:08;2.80;79.80
77613;DHT22;66777;52.282;5.960;2023-02-24T06:40:34;2.80;80.10
77613;DHT22;66777;52.282;5.960;2023-02-24T06:43:02;2.80;79.70
77613;DHT22;66777;52.282;5.960;2023-02-24T06:45:28;2.80;79.80
77613;DHT22;66777;52.282;5.960;2023-02-24T06:47:55;2.90;79.80
77613;DHT22;66777;52.282;5.960;2023-02-24T06:50:22;2.90;79.10
77613;DHT22;66777;52.282;5.960;2023-02-24T06:52:48;2.90;78.60
77613;DHT22;66777;52.282;5.960;2023-02-24T06:55:15;2.90;78.60
77613;DHT22;66777;52.282;5.960;2023-02-24T06:57:52;2.90;79.10
77613;DHT22;66777;52.282;5.960;2023-02-24T07:00:26;2.90;79.40
77613;DHT22;66777;52.282;5.960;2023-02-24T07:03:06;3.00;79.20
77613;DHT22;66777;52.282;5.960;2023-02-24T07:05:50;3.00;78.40
77613;DHT22;66777;52.282;5.960;2023-02-24T07:08:20;3.00;79.30
77613;DHT22;66777;52.282;5.960;2023-02-24T07:10:55;3.00;79.30
77613;DHT22;66777;52.282;5.960;2023-02-24T07:13:23;3.00;79.40
77613;DHT22;66777;52.282;5.960;2023-02-24T07:15:49;3.00;79.40
77613;DHT22;66777;52.282;5.960;2023-02-24T07:18:17;3.10;79.80
77613;DHT22;66777;52.282;5.960;2023-02-24T07:20:44;3.10;79.40
77613;DHT22;66777;52.282;5.960;2023-02-24T07:23:13;3.10;79.40
77613;DHT22;66777;52.282;5.960;2023-02-24T07:25:43;3.10;79.20
77613;DHT22;66777;52.282;5.960;2023-02-24T07:28:12;3.10;79.80
77613;DHT22;66777;52.282;5.960;2023-02-24T07:30:39;3.10;79.80
77613;DHT22;66777;52.282;5.960;2023-02-24T07:33:07;3.10;80.50
77613;DHT22;66777;52.282;5.960;2023-02-24T07:35:33;3.10;80.40
77613;DHT22;66777;52.282;5.960;2023-02-24T07:38:02;3.10;80.80
77613;DHT22;66777;52.282;5.960;2023-02-24T07:40:31;3.10;81.40
77613;DHT22;66777;52.282;5.960;2023-02-24T07:42:59;3.10;81.50
77613;DHT22;66777;52.282;5.960;2023-02-24T07:45:26;3.10;82.10
77613;DHT22;66777;52.282;5.960;2023-02-24T07:47:52;3.10;82.10
77613;DHT22;66777;52.282;5.960;2023-02-24T07:50:17;3.10;81.90
77613;DHT22;66777;52.282;5.960;2023-02-24T07:52:46;3.10;82.10
77613;DHT22;66777;52.282;5.960;2023-02-24T07:55:13;3.10;82.40
77613;DHT22;66777;52.282;5.960;2023-02-24T07:57:43;3.10;82.30
77613;DHT22;66777;52.282;5.960;2023-02-24T08:00:15;3.10;82.10
77613;DHT22;66777;52.282;5.960;2023-02-24T08:02:45;3.10;82.30
77613;DHT22;66777;52.282;5.960;2023-02-24T08:05:11;3.10;82.40
77613;DHT22;66777;52.282;5.960;2023-02-24T08:07:37;3.20;82.90
77613;DHT22;66777;52.282;5.960;2023-02-24T08:10:06;3.20;83.00
77613;DHT22;66777;52.282;5.960;2023-02-24T08:12:40;3.30;83.10
77613;DHT22;66777;52.282;5.960;2023-02-24T08:15:10;3.30;83.20
77613;DHT22;66777;52.282;5.960;2023-02-24T08:17:42;3.30;83.00
77613;DHT22;66777;52.282;5.960;2023-02-24T08:20:09;3.30;83.50
77613;DHT22;66777;52.282;5.960;2023-02-24T08:22:39;3.30;83.40
77613;DHT22;66777;52.282;5.960;2023-02-24T08:25:09;3.30;83.80
77613;DHT22;66777;52.282;5.960;2023-02-24T08:27:37;3.30;83.70
77613;DHT22;66777;52.282;5.960;2023-02-24T08:30:06;3.30;83.60
77613;DHT22;66777;52.282;5.960;2023-02-24T08:32:37;3.30;83.60
77613;DHT22;66777;52.282;5.960;2023-02-24T08:35:15;3.30;83.80
77613;DHT22;66777;52.282;5.960;2023-02-24T08:37:47;3.30;84.00
77613;DHT22;66777;52.282;5.960;2023-02-24T08:40:20;3.30;84.30
77613;DHT22;66777;52.282;5.960;2023-02-24T08:45:46;3.30;84.60
77613;DHT22;66777;52.282;5.960;2023-02-24T08:48:21;3.30;85.00
77613;DHT22;66777;52.282;5.960;2023-02-24T08:53:36;3.30;85.60
77613;DHT22;66777;52.282;5.960;2023-02-24T08:56:10;3.30;85.60
77613;DHT22;66777;52.282;5.960;2023-02-24T08:58:44;3.30;85.30
77613;DHT22;66777;52.282;5.960;2023-02-24T09:01:18;3.50;85.10
77613;DHT22;66777;52.282;5.960;2023-02-24T09:03:45;3.50;84.60
77613;DHT22;66777;52.282;5.960;2023-02-24T09:06:17;3.60;84.60
77613;DHT22;66777;52.282;5.960;2023-02-24T09:08:52;3.70;84.70
77613;DHT22;66777;52.282;5.960;2023-02-24T09:11:39;3.90;84.50
77613;DHT22;66777;52.282;5.960;2023-02-24T09:14:13;3.90;84.00
77613;DHT22;66777;52.282;5.960;2023-02-24T09:16:46;3.90;83.80
77613;DHT22;66777;52.282;5.960;2023-02-24T09:19:49;3.90;83.90
77613;DHT22;66777;52.282;5.960;2023-02-24T09:22:21;3.90;84.60
77613;DHT22;66777;52.282;5.960;2023-02-24T09:25:08;3.90;84.60
77613;DHT22;66777;52.282;5.960;2023-02-24T09:27:54;4.00;85.00
77613;DHT22;66777;52.282;5.960;2023-02-24T09:30:23;4.00;85.20
77613;DHT22;66777;52.282;5.960;2023-02-24T09:33:17;4.00;86.10
77613;DHT22;66777;52.282;5.960;2023-02-24T09:35:45;4.10;87.00
77613;DHT22;66777;52.282;5.960;2023-02-24T09:38:14;4.20;87.20
77613;DHT22;66777;52.282;5.960;2023-02-24T09:40:47;4.20;87.30
77613;DHT22;66777;52.282;5.960;2023-02-24T09:43:22;4.30;86.70
77613;DHT22;66777;52.282;5.960;2023-02-24T09:45:53;4.30;86.70
77613;DHT22;66777;52.282;5.960;2023-02-24T09:48:36;4.30;87.30
77613;DHT22;66777;52.282;5.960;2023-02-24T09:51:09;4.40;86.80
77613;DHT22;66777;52.282;5.960;2023-02-24T09:53:38;4.50;87.10
77613;DHT22;66777;52.282;5.960;2023-02-24T09:56:24;4.50;86.70
77613;DHT22;66777;52.282;5.960;2023-02-24T09:59:03;4.50;86.90
77613;DHT22;66777;52.282;5.960;2023-02-24T10:02:11;4.50;87.40
77613;DHT22;66777;52.282;5.960;2023-02-24T10:04:57;4.60;87.40
77613;DHT22;66777;52.282;5.960;2023-02-24T10:07:34;4.50;87.80
77613;DHT22;66777;52.282;5.960;2023-02-24T10:10:25;4.60;88.50
77613;DHT22;66777;52.282;5.960;2023-02-24T10:13:06;4.70;88.30
77613;DHT22;66777;52.282;5.960;2023-02-24T10:15:42;4.60;88.00
77613;DHT22;66777;52.282;5.960;2023-02-24T10:21:29;4.70;89.00
77613;DHT22;66777;52.282;5.960;2023-02-24T10:32:35;4.70;89.70
77613;DHT22;66777;52.282;5.960;2023-02-24T10:35:03;4.80;90.30
77613;DHT22;66777;52.282;5.960;2023-02-24T10:37:30;4.90;90.30
77613;DHT22;66777;52.282;5.960;2023-02-24T10:39:59;4.90;90.10
77613;DHT22;66777;52.282;5.960;2023-02-24T10:42:36;5.00;90.20
77613;DHT22;66777;52.282;5.960;2023-02-24T10:45:23;5.30;89.80
77613;DHT22;66777;52.282;5.960;2023-02-24T10:47:57;5.30;89.30
77613;DHT22;66777;52.282;5.960;2023-02-24T10:50:26;5.50;89.40
77613;DHT22;66777;52.282;5.960;2023-02-24T10:52:59;5.50;89.30
77613;DHT22;66777;52.282;5.960;2023-02-24T10:55:44;5.50;90.10
77613;DHT22;66777;52.282;5.960;2023-02-24T11:00:56;5.50;90.40
77613;DHT22;66777;52.282;5.960;2023-02-24T11:03:32;5.50;91.00
77613;DHT22;66777;52.282;5.960;2023-02-24T11:06:28;5.50;90.80
77613;DHT22;66777;52.282;5.960;2023-02-24T11:09:21;5.50;91.10
77613;DHT22;66777;52.282;5.960;2023-02-24T11:17:53;5.50;91.10
77613;DHT22;66777;52.282;5.960;2023-02-24T11:23:03;5.30;91.90
77613;DHT22;66777;52.282;5.960;2023-02-24T11:25:37;5.30;92.30
77613;DHT22;66777;52.282;5.960;2023-02-24T11:28:27;5.30;92.60
77613;DHT22;66777;52.282;5.960;2023-02-24T11:33:32;5.30;92.90
77613;DHT22;66777;52.282;5.960;2023-02-24T11:36:29;5.30;92.90
77613;DHT22;66777;52.282;5.960;2023-02-24T11:39:25;5.30;93.00
77613;DHT22;66777;52.282;5.960;2023-02-24T11:41:56;5.30;93.20
77613;DHT22;66777;52.282;5.960;2023-02-24T11:47:00;5.50;93.40
77613;DHT22;66777;52.282;5.960;2023-02-24T11:49:52;5.50;93.50
77613;DHT22;66777;52.282;5.960;2023-02-24T11:52:23;5.50;93.60
77613;DHT22;66777;52.282;5.960;2023-02-24T11:54:55;5.60;93.70
77613;DHT22;66777;52.282;5.960;2023-02-24T11:57:49;5.70;93.90
77613;DHT22;66777;52.282;5.960;2023-02-24T12:05:42;6.10;93.90
77613;DHT22;66777;52.282;5.960;2023-02-24T12:08:11;6.30;93.70
77613;DHT22;66777;52.282;5.960;2023-02-24T12:10:48;6.40;93.80
77613;DHT22;66777;52.282;5.960;2023-02-24T12:21:05;13.80;89.30
77613;DHT22;66777;52.282;5.960;2023-02-24T12:23:35;16.00;81.20
77613;DHT22;66777;52.282;5.960;2023-02-24T12:34:50;19.90;71.90
77613;DHT22;66777;52.282;5.960;2023-02-24T12:40:13;17.50;72.00
77613;DHT22;66777;52.282;5.960;2023-02-24T12:51:37;11.70;81.80
77613;DHT22;66777;52.282;5.960;2023-02-24T12:54:23;10.50;84.20
77613;DHT22;66777;52.282;5.960;2023-02-24T12:57:13;10.00;86.70
77613;DHT22;66777;52.282;5.960;2023-02-24T12:59:43;9.70;88.60
77613;DHT22;66777;52.282;5.960;2023-02-24T13:05:27;9.00;88.10
77613;DHT22;66777;52.282;5.960;2023-02-24T13:16:09;9.20;86.50
77613;DHT22;66777;52.282;5.960;2023-02-24T13:18:36;9.40;88.80
77613;DHT22;66777;52.282;5.960;2023-02-24T13:21:23;10.20;84.60
77613;DHT22;66777;52.282;5.960;2023-02-24T13:23:58;10.20;84.20
77613;DHT22;66777;52.282;5.960;2023-02-24T13:26:27;10.00;83.50
77613;DHT22;66777;52.282;5.960;2023-02-24T13:29:23;11.10;83.10
77613;DHT22;66777;52.282;5.960;2023-02-24T13:31:52;12.10;79.60
77613;DHT22;66777;52.282;5.960;2023-02-24T13:36:48;13.80;78.40
77613;DHT22;66777;52.282;5.960;2023-02-24T13:39:23;13.90;76.20
77613;DHT22;66777;52.282;5.960;2023-02-24T13:42:05;12.70;79.20
77613;DHT22;66777;52.282;5.960;2023-02-24T13:50:16;10.10;82.50
77613;DHT22;66777;52.282;5.960;2023-02-24T13:58:42;8.00;89.60
77613;DHT22;66777;52.282;5.960;2023-02-24T14:01:13;7.20;90.20
77613;DHT22;66777;52.282;5.960;2023-02-24T14:03:43;6.80;91.20
77613;DHT22;66777;52.282;5.960;2023-02-24T14:06:29;6.50;91.50
77613;DHT22;66777;52.282;5.960;2023-02-24T14:08:58;6.60;92.10
77613;DHT22;66777;52.282;5.960;2023-02-24T14:11:27;7.00;92.60
77613;DHT22;66777;52.282;5.960;2023-02-24T14:13:56;7.60;92.80
77613;DHT22;66777;52.282;5.960;2023-02-24T14:16:24;8.20;92.10
77613;DHT22;66777;52.282;5.960;2023-02-24T14:18:56;8.30;91.80
77613;DHT22;66777;52.282;5.960;2023-02-24T14:21:24;8.30;91.70
77613;DHT22;66777;52.282;5.960;2023-02-24T14:26:26;8.40;91.50
77613;DHT22;66777;52.282;5.960;2023-02-24T14:28:58;8.40;91.50
77613;DHT22;66777;52.282;5.960;2023-02-24T14:31:28;8.10;91.10
77613;DHT22;66777;52.282;5.960;2023-02-24T14:34:00;7.90;91.10
77613;DHT22;66777;52.282;5.960;2023-02-24T14:36:29;7.80;91.50
77613;DHT22;66777;52.282;5.960;2023-02-24T14:41:43;8.40;91.10
77613;DHT22;66777;52.282;5.960;2023-02-24T14:44:23;8.50;90.90
77613;DHT22;66777;52.282;5.960;2023-02-24T14:47:02;8.10;89.70
77613;DHT22;66777;52.282;5.960;2023-02-24T14:49:33;7.80;90.80
77613;DHT22;66777;52.282;5.960;2023-02-24T14:52:00;7.50;91.00
77613;DHT22;66777;52.282;5.960;2023-02-24T14:54:44;7.50;91.40
77613;DHT22;66777;52.282;5.960;2023-02-24T14:57:18;7.50;91.40
77613;DHT22;66777;52.282;5.960;2023-02-24T14:59:50;7.80;91.40
77613;DHT22;66777;52.282;5.960;2023-02-24T15:02:20;8.00;91.30
77613;DHT22;66777;52.282;5.960;2023-02-24T15:04:46;7.80;91.30
77613;DHT22;66777;52.282;5.960;2023-02-24T15:07:17;7.60;91.30
77613;DHT22;66777;52.282;5.960;2023-02-24T15:09:45;7.50;91.60
77613;DHT22;66777;52.282;5.960;2023-02-24T15:14:39;7.30;90.20
77613;DHT22;66777;52.282;5.960;2023-02-24T15:17:15;7.20;90.40
77613;DHT22;66777;52.282;5.960;2023-02-24T15:19:43;7.00;90.50
77613;DHT22;66777;52.282;5.960;2023-02-24T15:24:43;6.90;91.00
77613;DHT22;66777;52.282;5.960;2023-02-24T15:29:42;6.80;91.20
77613;DHT22;66777;52.282;5.960;2023-02-24T15:32:17;6.80;91.30
77613;DHT22;66777;52.282;5.960;2023-02-24T15:34:46;6.90;91.10
77613;DHT22;66777;52.282;5.960;2023-02-24T15:37:20;7.00;91.40
77613;DHT22;66777;52.282;5.960;2023-02-24T15:39:48;6.90;91.20
77613;DHT22;66777;52.282;5.960;2023-02-24T15:44:51;6.80;91.00
77613;DHT22;66777;52.282;5.960;2023-02-24T15:47:26;6.70;91.50
77613;DHT22;66777;52.282;5.960;2023-02-24T15:49:53;6.80;91.40
77613;DHT22;66777;52.282;5.960;2023-02-24T15:52:26;6.70;91.30
77613;DHT22;66777;52.282;5.960;2023-02-24T15:54:53;6.70;91.10
77613;DHT22;66777;52.282;5.960;2023-02-24T15:57:19;6.60;91.20
77613;DHT22;66777;52.282;5.960;2023-02-24T15:59:46;6.50;91.50
77613;DHT22;66777;52.282;5.960;2023-02-24T16:02:20;6.40;91.50
77613;DHT22;66777;52.282;5.960;2023-02-24T16:04:47;6.30;91.40
77613;DHT22;66777;52.282;5.960;2023-02-24T16:07:23;6.20;90.70
77613;DHT22;66777;52.282;5.960;2023-02-24T16:09:51;6.10;90.50
77613;DHT22;66777;52.282;5.960;2023-02-24T16:12:23;6.10;91.10
77613;DHT22;66777;52.282;5.960;2023-02-24T16:14:50;6.00;90.80
77613;DHT22;66777;52.282;5.960;2023-02-24T16:19:54;5.60;91.60
77613;DHT22;66777;52.282;5.960;2023-02-24T16:22:21;5.50;92.10
77613;DHT22;66777;52.282;5.960;2023-02-24T16:24:48;5.50;92.50
77613;DHT22;66777;52.282;5.960;2023-02-24T16:27:19;5.50;92.80
77613;DHT22;66777;52.282;5.960;2023-02-24T16:29:47;5.50;93.00
77613;DHT22;66777;52.282;5.960;2023-02-24T16:32:14;5.40;93.10
77613;DHT22;66777;52.282;5.960;2023-02-24T16:34:40;5.40;93.20
77613;DHT22;66777;52.282;5.960;2023-02-24T16:37:19;5.40;93.30
77613;DHT22;66777;52.282;5.960;2023-02-24T16:39:46;5.30;93.30
77613;DHT22;66777;52.282;5.960;2023-02-24T16:42:16;5.30;93.30
77613;DHT22;66777;52.282;5.960;2023-02-24T16:44:42;5.20;93.30
77613;DHT22;66777;52.282;5.960;2023-02-24T16:47:13;5.30;93.50
77613;DHT22;66777;52.282;5.960;2023-02-24T16:49:42;5.30;93.60
77613;DHT22;66777;52.282;5.960;2023-02-24T16:52:10;5.30;93.70
77613;DHT22;66777;52.282;5.960;2023-02-24T16:54:36;5.10;93.60
77613;DHT22;66777;52.282;5.960;2023-02-24T16:57:03;4.90;93.30
77613;DHT22;66777;52.282;5.960;2023-02-24T16:59:29;4.80;93.30
77613;DHT22;66777;52.282;5.960;2023-02-24T17:01:56;4.70;93.20
77613;DHT22;66777;52.282;5.960;2023-02-24T17:04:24;4.50;93.10
77613;DHT22;66777;52.282;5.960;2023-02-24T17:06:50;4.40;93.20
77613;DHT22;66777;52.282;5.960;2023-02-24T17:09:16;4.30;93.20
77613;DHT22;66777;52.282;5.960;2023-02-24T17:11:43;4.30;93.20
77613;DHT22;66777;52.282;5.960;2023-02-24T17:14:18;4.20;93.20
77613;DHT22;66777;52.282;5.960;2023-02-24T17:16:45;4.20;93.40
77613;DHT22;66777;52.282;5.960;2023-02-24T17:19:12;4.20;93.40
77613;DHT22;66777;52.282;5.960;2023-02-24T17:21:41;4.20;93.50
77613;DHT22;66777;52.282;5.960;2023-02-24T17:24:16;4.30;93.60
77613;DHT22;66777;52.282;5.960;2023-02-24T17:26:44;4.30;93.60
77613;DHT22;66777;52.282;5.960;2023-02-24T17:29:11;4.40;93.70
77613;DHT22;66777;52.282;5.960;2023-02-24T17:31:38;4.50;93.80
77613;DHT22;66777;52.282;5.960;2023-02-24T17:34:05;4.50;93.90
77613;DHT22;66777;52.282;5.960;2023-02-24T17:36:30;4.50;93.80
77613;DHT22;66777;52.282;5.960;2023-02-24T17:38:56;4.50;93.90
77613;DHT22;66777;52.282;5.960;2023-02-24T17:41:24;4.50;93.90
77613;DHT22;66777;52.282;5.960;2023-02-24T17:43:51;4.50;94.00
77613;DHT22;66777;52.282;5.960;2023-02-24T17:46:17;4.60;94.00
77613;DHT22;66777;52.282;5.960;2023-02-24T17:48:43;4.70;94.10
77613;DHT22;66777;52.282;5.960;2023-02-24T17:51:14;4.70;94.10
77613;DHT22;66777;52.282;5.960;2023-02-24T17:53:40;4.70;94.10
77613;DHT22;66777;52.282;5.960;2023-02-24T17:56:07;4.70;94.20
77613;DHT22;66777;52.282;5.960;2023-02-24T17:58:34;4.70;94.10
77613;DHT22;66777;52.282;5.960;2023-02-24T18:01:00;4.50;94.00
77613;DHT22;66777;52.282;5.960;2023-02-24T18:03:28;4.30;93.90
77613;DHT22;66777;52.282;5.960;2023-02-24T18:05:58;4.20;93.90
77613;DHT22;66777;52.282;5.960;2023-02-24T18:08:25;4.10;93.90
77613;DHT22;66777;52.282;5.960;2023-02-24T18:10:50;4.10;93.90
77613;DHT22;66777;52.282;5.960;2023-02-24T18:13:18;4.10;94.00
77613;DHT22;66777;52.282;5.960;2023-02-24T18:15:43;4.10;93.90
77613;DHT22;66777;52.282;5.960;2023-02-24T18:18:09;4.10;94.00
77613;DHT22;66777;52.282;5.960;2023-02-24T18:20:35;4.10;94.00
77613;DHT22;66777;52.282;5.960;2023-02-24T18:23:01;4.10;94.10
77613;DHT22;66777;52.282;5.960;2023-02-24T18:25:27;4.10;94.10
77613;DHT22;66777;52.282;5.960;2023-02-24T18:27:53;4.10;94.10
77613;DHT22;66777;52.282;5.960;2023-02-24T18:30:19;4.10;94.10
77613;DHT22;66777;52.282;5.960;2023-02-24T18:32:45;4.10;94.10
77613;DHT22;66777;52.282;5.960;2023-02-24T18:35:13;4.10;94.10
77613;DHT22;66777;52.282;5.960;2023-02-24T18:37:40;4.10;94.10
77613;DHT22;66777;52.282;5.960;2023-02-24T18:40:06;4.10;94.10
77613;DHT22;66777;52.282;5.960;2023-02-24T18:42:32;4.00;94.10